Time;durP1;ratioP1;P1;durP2;ratioP2;P2;SDS_P1;SDS_P2;PMS_P1;PMS_P2;Temp;Humidity;BMP_temperature;BMP_pressure;BME280_temperature;BME280_humidity;BME280_pressure;Samples;Min_cycle;Max_cycle;Signal;HPM_P1;HPM_P2
2024/01/05 00:01:59;;;;;;;0.20;0.20;;;;;;;;;;5043241;28;20266;-65
2024/01/05 00:04:26;;;;;;;1.33;0.50;;;;;;;;;;5051526;28;20225;-65
2024/01/05 00:06:55;;;;;;;0.57;0.40;;;;;;;;;;5048650;28;20293;-66
2024/01/05 00:09:22;;;;;;;0.23;0.23;;;;;;;;;;5034791;28;20209;-66
2024/01/05 00:11:49;;;;;;;1.40;0.40;;;;;;;;;;5041207;28;20213;-66
2024/01/05 00:14:17;;;;;;;0.53;0.20;;;;;;;;;;5049315;28;20246;-66
2024/01/05 00:16:44;;;;;;;0.60;0.20;;;;;;;;;;5054540;28;20197;-66
2024/01/05 00:19:11;;;;;;;0.63;0.30;;;;;;;;;;5054168;28;20262;-66
2024/01/05 00:21:38;;;;;;;0.20;0.20;;;5.10;99.90;;;;;;5058308;28;20253;-66
2024/01/05 00:24:07;;;;;;;0.53;0.40;;;5.20;99.90;;;;;;5048397;28;20224;-66
2024/01/05 00:26:34;;;;;;;0.33;0.30;;;;;;;;;;5045322;28;20280;-65
2024/01/05 00:29:01;;;;;;;0.60;0.60;;;5.10;99.90;;;;;;5054822;28;20601;-65
2024/01/05 00:31:28;;;;;;;0.53;0.47;;;;;;;;;;5053578;28;20222;-65
2024/01/05 00:33:55;;;;;;;4.63;0.90;;;5.00;99.90;;;;;;5054705;28;20597;-66
2024/01/05 00:36:22;;;;;;;0.93;0.83;;;5.00;99.90;;;;;;5045941;28;20237;-66
2024/01/05 00:38:49;;;;;;;0.83;0.43;;;4.80;99.90;;;;;;5049935;28;20251;-66
2024/01/05 00:41:17;;;;;;;0.30;0.30;;;4.90;99.90;;;;;;5042343;28;20737;-65
2024/01/05 00:43:44;;;;;;;1.53;0.37;;;;;;;;;;5034112;28;20240;-66
2024/01/05 00:46:12;;;;;;;0.47;0.47;;;;;;;;;;5040883;28;20282;-65
2024/01/05 00:48:39;;;;;;;1.07;0.37;;;;;;;;;;5040585;28;20224;-66
2024/01/05 00:51:07;;;;;;;1.17;0.50;;;;;;;;;;5040039;28;20676;-65
2024/01/05 00:53:34;;;;;;;0.50;0.50;;;;;;;;;;5034711;28;20264;-66
2024/01/05 00:56:01;;;;;;;0.57;0.30;;;;;;;;;;5034556;28;20209;-66
2024/01/05 00:58:30;;;;;;;0.30;0.30;;;;;;;;;;5046822;28;20241;-66
2024/01/05 01:00:57;;;;;;;1.10;0.30;;;4.80;99.90;;;;;;5047380;28;20206;-66
2024/01/05 01:03:24;;;;;;;0.30;0.30;;;4.90;99.90;;;;;;5040912;28;20718;-66
2024/01/05 01:05:51;;;;;;;0.30;0.30;;;4.80;99.90;;;;;;5055897;28;20702;-66
2024/01/05 01:08:18;;;;;;;0.40;0.40;;;4.80;99.90;;;;;;5051624;28;20548;-65
2024/01/05 01:10:45;;;;;;;0.53;0.50;;;4.80;99.90;;;;;;5053288;28;20211;-66
2024/01/05 01:13:12;;;;;;;0.43;0.40;;;4.80;99.90;;;;;;5048682;28;20299;-65
2024/01/05 01:15:40;;;;;;;1.13;0.40;;;4.80;99.90;;;;;;5042608;28;20722;-65
2024/01/05 01:18:07;;;;;;;0.50;0.50;;;4.70;99.90;;;;;;5052911;28;20219;-65
2024/01/05 01:20:34;;;;;;;0.33;0.33;;;4.80;99.90;;;;;;5044738;28;20723;-65
2024/01/05 01:23:01;;;;;;;0.30;0.30;;;5.00;99.90;;;;;;5031851;28;20667;-65
2024/01/05 01:25:28;;;;;;;1.03;0.40;;;5.00;99.90;;;;;;5036617;28;20801;-66
2024/01/05 01:27:55;;;;;;;0.40;0.30;;;5.00;99.90;;;;;;5042431;28;20197;-66
2024/01/05 01:30:22;;;;;;;0.63;0.37;;;5.00;99.90;;;;;;5033554;28;20671;-65
2024/01/05 01:32:50;;;;;;;0.63;0.30;;;4.90;99.90;;;;;;5034456;28;20227;-65
2024/01/05 01:35:17;;;;;;;0.30;0.30;;;4.90;99.90;;;;;;5034917;28;20258;-65
2024/01/05 01:37:44;;;;;;;0.40;0.40;;;4.90;99.90;;;;;;5033736;28;20231;-66
2024/01/05 01:40:12;;;;;;;0.67;0.60;;;4.80;99.90;;;;;;5036616;28;20201;-65
2024/01/05 01:42:43;;;;;;;0.70;0.50;;;4.80;99.90;;;;;;5052376;28;20277;-66
2024/01/05 01:45:10;;;;;;;2.40;0.87;;;4.70;99.90;;;;;;5051703;28;20207;-66
2024/01/05 01:47:38;;;;;;;3.77;1.23;;;4.80;99.90;;;;;;5042716;28;20424;-65
2024/01/05 01:50:07;;;;;;;1.23;1.10;;;;;;;;;;5036193;28;20206;-66
2024/01/05 01:52:36;;;;;;;1.50;1.40;;;;;;;;;;5041480;28;20220;-65
2024/01/05 01:55:03;;;;;;;1.30;1.20;;;;;;;;;;5053240;28;20673;-66
2024/01/05 01:57:30;;;;;;;1.43;1.20;;;;;;;;;;5053209;28;20214;-65
2024/01/05 01:59:57;;;;;;;1.93;1.00;;;;;;;;;;5052528;28;20203;-65
2024/01/05 02:02:25;;;;;;;0.67;0.67;;;;;;;;;;5052986;28;20224;-65
2024/01/05 02:04:52;;;;;;;1.50;1.07;;;;;;;;;;5041783;28;20211;-66
2024/01/05 02:07:21;;;;;;;1.90;0.70;;;;;;;;;;5032746;28;20226;-66
2024/01/05 02:09:48;;;;;;;0.97;0.97;;;;;;;;;;5030258;28;20259;-66
2024/01/05 02:12:15;;;;;;;1.10;0.97;;;4.20;99.90;;;;;;5040888;28;20192;-66
2024/01/05 02:14:42;;;;;;;2.43;1.03;;;4.30;99.90;;;;;;5051010;28;20204;-66
2024/01/05 02:17:27;;;;;;;1.00;0.77;;;4.10;99.90;;;;;;5038359;28;20249;-65
2024/01/05 02:19:55;;;;;;;2.97;0.87;;;4.10;99.90;;;;;;5032059;28;20205;-65
2024/01/05 02:22:25;;;;;;;0.60;0.60;;;4.00;99.90;;;;;;5032602;28;20712;-66
2024/01/05 02:24:53;;;;;;;5.90;4.23;;;;;;;;;;5029855;28;20205;-65
2024/01/05 02:27:21;;;;;;;44.93;22.40;;;;;;;;;;5012854;28;20222;-65
2024/01/05 02:29:48;;;;;;;28.30;15.70;;;;;;;;;;5036011;28;20253;-66
2024/01/05 02:32:16;;;;;;;31.17;19.30;;;4.10;99.90;;;;;;5032462;28;20616;-65
2024/01/05 02:34:43;;;;;;;3.77;3.07;;;;;;;;;;5032205;28;20708;-65
2024/01/05 02:37:10;;;;;;;3.57;1.60;;;4.00;99.90;;;;;;5032564;28;20201;-66
2024/01/05 02:39:38;;;;;;;2.00;1.77;;;;;;;;;;5031689;28;20208;-66
2024/01/05 02:42:06;;;;;;;3.47;1.73;;;4.20;99.90;;;;;;5039082;28;20256;-66
2024/01/05 02:44:34;;;;;;;3.23;1.73;;;;;;;;;;5049297;28;20716;-65
2024/01/05 02:47:01;;;;;;;1.73;1.40;;;;;;;;;;5052081;28;20222;-66
2024/01/05 02:49:28;;;;;;;1.53;1.17;;;4.20;99.90;;;;;;5051504;28;20254;-66
2024/01/05 02:51:55;;;;;;;4.70;1.30;;;4.40;99.90;;;;;;5052224;28;20202;-66
2024/01/05 02:54:22;;;;;;;2.60;1.20;;;;;;;;;;5042345;28;20227;-65
2024/01/05 02:56:50;;;;;;;1.80;0.93;;;;;;;;;;5048126;28;20219;-65
2024/01/05 02:59:19;;;;;;;2.80;0.87;;;4.40;99.90;;;;;;5031473;28;20202;-66
2024/01/05 03:01:49;;;;;;;1.93;1.17;;;4.90;99.90;;;;;;5032198;28;20240;-66
2024/01/05 03:04:16;;;;;;;0.93;0.90;;;4.40;99.90;;;;;;5031983;28;20320;-65
2024/01/05 03:06:43;;;;;;;1.73;0.90;;;;;;;;;;5038349;28;20215;-65
2024/01/05 03:09:10;;;;;;;2.23;0.90;;;4.30;99.90;;;;;;5043467;28;20199;-65
2024/01/05 03:11:38;;;;;;;1.33;0.60;;;;;;;;;;5052101;28;20210;-65
2024/01/05 03:14:05;;;;;;;3.03;0.70;;;4.20;99.90;;;;;;5046967;28;20227;-66
2024/01/05 03:16:33;;;;;;;0.80;0.80;;;4.20;99.90;;;;;;5023449;28;20195;-66
2024/01/05 03:19:00;;;;;;;1.00;0.90;;;;;;;;;;5028092;28;20263;-66
2024/01/05 03:21:27;;;;;;;1.90;1.73;;;;;;;;;;5042912;28;20199;-65
2024/01/05 03:23:54;;;;;;;1.73;1.20;;;4.40;99.90;;;;;;5051593;28;20227;-66
2024/01/05 03:26:21;;;;;;;1.90;0.97;;;4.40;99.90;;;;;;5052054;28;20246;-66
2024/01/05 03:28:48;;;;;;;1.00;0.70;;;4.40;99.90;;;;;;5051789;28;20261;-66
2024/01/05 03:31:15;;;;;;;1.23;0.70;;;4.20;99.90;;;;;;5039637;28;20270;-66
2024/01/05 03:33:45;;;;;;;3.10;0.70;;;4.30;99.90;;;;;;5039800;28;20223;-67
2024/01/05 03:36:12;;;;;;;1.17;0.53;;;4.10;99.90;;;;;;5031749;28;20204;-66
2024/01/05 03:38:39;;;;;;;2.30;0.70;;;4.10;99.90;;;;;;5032127;28;20263;-66
2024/01/05 03:41:06;;;;;;;2.53;0.50;;;4.10;99.90;;;;;;5037737;28;20249;-66
2024/01/05 03:43:33;;;;;;;1.87;0.70;;;4.00;99.90;;;;;;5045337;28;20600;-66
2024/01/05 03:46:00;;;;;;;0.63;0.60;;;4.10;99.90;;;;;;5048048;28;20206;-66
2024/01/05 03:48:27;;;;;;;0.73;0.50;;;4.00;99.90;;;;;;5052379;28;20281;-66
2024/01/05 03:50:56;;;;;;;1.00;1.00;;;4.00;99.90;;;;;;5018954;28;20744;-66
2024/01/05 03:53:23;;;;;;;1.57;0.47;;;4.00;99.90;;;;;;5016175;28;20280;-66
2024/01/05 03:55:50;;;;;;;1.37;0.80;;;4.00;99.90;;;;;;5026469;28;20211;-66
2024/01/05 03:58:17;;;;;;;1.30;0.70;;;3.90;99.90;;;;;;5047228;28;20254;-66
2024/01/05 04:00:43;;;;;;;6.73;0.70;;;3.80;99.90;;;;;;5054676;28;20828;-66
2024/01/05 04:03:10;;;;;;;3.10;0.60;;;3.80;99.90;;;;;;5055418;28;20594;-66
2024/01/05 04:05:37;;;;;;;1.83;1.03;;;3.90;99.90;;;;;;5031771;28;20204;-66
2024/01/05 04:08:06;;;;;;;0.67;0.63;;;3.90;99.90;;;;;;5045761;28;20279;-66
2024/01/05 04:10:33;;;;;;;1.70;0.80;;;3.70;99.90;;;;;;5041012;28;20201;-66
2024/01/05 04:13:00;;;;;;;0.70;0.70;;;3.80;99.90;;;;;;5035334;28;20224;-66
2024/01/05 04:15:28;;;;;;;2.47;1.13;;;3.70;99.90;;;;;;5037736;28;20205;-66
2024/01/05 04:17:55;;;;;;;3.30;0.90;;;3.70;99.90;;;;;;5035336;28;20691;-65
2024/01/05 04:20:22;;;;;;;1.33;1.10;;;3.70;99.90;;;;;;5034473;28;20201;-66
2024/01/05 04:22:49;;;;;;;2.07;1.27;;;3.60;99.90;;;;;;5035541;28;20730;-65
2024/01/05 04:25:18;;;;;;;1.67;1.23;;;3.50;99.90;;;;;;5035309;28;20201;-66
2024/01/05 04:27:45;;;;;;;2.30;1.13;;;3.70;99.90;;;;;;5035398;28;20267;-65
2024/01/05 04:30:13;;;;;;;1.57;1.13;;;3.70;99.90;;;;;;5034731;28;20209;-66
2024/01/05 04:32:40;;;;;;;1.50;1.23;;;3.60;99.90;;;;;;5038394;28;20718;-66
2024/01/05 04:35:07;;;;;;;1.77;1.67;;;3.70;99.90;;;;;;5039699;28;20201;-66
2024/01/05 04:37:34;;;;;;;3.07;1.50;;;3.70;99.90;;;;;;5037931;28;20201;-66
2024/01/05 04:40:01;;;;;;;3.40;1.73;;;3.80;99.90;;;;;;5030968;28;20204;-66
2024/01/05 04:42:30;;;;;;;2.93;2.07;;;3.70;99.90;;;;;;5038351;28;20238;-66
2024/01/05 04:44:57;;;;;;;1.87;1.40;;;3.80;99.90;;;;;;5034793;28;20204;-66
2024/01/05 04:47:24;;;;;;;2.83;1.80;;;3.80;99.90;;;;;;5034569;28;20220;-66
2024/01/05 04:49:51;;;;;;;3.23;1.70;;;3.80;99.90;;;;;;5033626;28;20203;-66
2024/01/05 04:52:19;;;;;;;3.10;1.53;;;3.90;99.90;;;;;;5033227;28;20289;-66
2024/01/05 04:54:46;;;;;;;1.57;1.27;;;3.80;99.90;;;;;;5031779;28;20239;-66
2024/01/05 04:57:13;;;;;;;1.53;1.23;;;3.90;99.90;;;;;;5034396;28;20200;-66
2024/01/05 04:59:42;;;;;;;1.77;1.37;;;3.90;99.90;;;;;;5034298;28;20201;-66
2024/01/05 05:02:09;;;;;;;2.70;1.77;;;3.90;99.90;;;;;;5039307;28;20207;-66
2024/01/05 05:04:36;;;;;;;1.67;1.20;;;3.90;99.90;;;;;;5037201;28;20200;-66
2024/01/05 05:07:08;;;;;;;1.30;1.20;;;4.00;99.90;;;;;;5034382;28;20221;-65
2024/01/05 05:09:35;;;;;;;2.10;1.90;;;4.00;99.90;;;;;;5033054;28;20207;-65
2024/01/05 05:12:05;;;;;;;1.67;1.57;;;;;;;;;;5028586;28;20200;-65
2024/01/05 05:14:31;;;;;;;2.07;1.97;;;3.70;99.90;;;;;;5029592;28;20749;-66
2024/01/05 05:17:00;;;;;;;2.50;2.00;;;3.90;99.90;;;;;;5026503;28;20271;-65
2024/01/05 05:19:27;;;;;;;2.30;1.77;;;3.90;99.90;;;;;;5033676;28;20255;-65
2024/01/05 05:21:54;;;;;;;1.53;1.43;;;3.60;99.90;;;;;;5033880;28;20639;-66
2024/01/05 05:24:21;;;;;;;2.90;2.40;;;3.60;99.90;;;;;;5032004;28;20783;-65
2024/01/05 05:26:48;;;;;;;3.57;2.07;;;;;;;;;;5033144;28;20236;-66
2024/01/05 05:29:15;;;;;;;2.33;2.17;;;;;;;;;;5033414;28;20209;-65
2024/01/05 05:31:43;;;;;;;4.83;2.67;;;;;;;;;;5033809;28;20197;-66
2024/01/05 05:34:11;;;;;;;3.10;2.47;;;;;;;;;;5033714;28;20275;-66
2024/01/05 05:36:38;;;;;;;2.30;2.10;;;;;;;;;;5033500;28;20204;-65
2024/01/05 05:39:06;;;;;;;2.27;2.17;;;;;;;;;;5033510;28;20201;-65
2024/01/05 05:41:33;;;;;;;2.60;1.80;;;3.70;99.90;;;;;;5032635;28;20214;-65
2024/01/05 05:44:00;;;;;;;1.73;1.63;;;3.70;99.90;;;;;;5035968;28;20233;-66
2024/01/05 05:46:27;;;;;;;1.80;1.23;;;3.50;99.90;;;;;;5025837;28;20199;-66
2024/01/05 05:48:54;;;;;;;1.93;1.40;;;3.50;99.90;;;;;;5034775;28;20707;-66
2024/01/05 05:51:22;;;;;;;1.53;1.43;;;3.50;99.90;;;;;;5032491;28;20622;-66
2024/01/05 05:53:49;;;;;;;1.30;1.10;;;3.50;99.90;;;;;;5033335;28;20219;-66
2024/01/05 05:56:16;;;;;;;3.13;1.57;;;;;;;;;;5033996;28;20264;-66
2024/01/05 05:58:44;;;;;;;2.60;1.53;;;3.50;99.90;;;;;;5033650;28;20205;-66
2024/01/05 06:01:13;;;;;;;2.00;1.50;;;3.20;99.90;;;;;;5029761;28;20205;-66
2024/01/05 06:03:40;;;;;;;1.40;1.20;;;3.40;99.90;;;;;;5033123;28;20221;-65
2024/01/05 06:06:17;;;;;;;1.50;1.27;;;3.30;99.90;;;;;;5033627;28;20262;-66
2024/01/05 06:08:46;;;;;;;2.40;1.60;;;;;;;;;;5034387;28;20253;-65
2024/01/05 06:11:15;;;;;;;4.43;1.40;;;3.40;99.90;;;;;;5032664;28;20197;-66
2024/01/05 06:13:43;;;;;;;2.70;2.53;;;;;;;;;;5032799;28;20328;-66
2024/01/05 06:16:10;;;;;;;3.03;2.83;;;4.60;99.90;;;;;;5032796;28;20588;-66
2024/01/05 06:18:39;;;;;;;2.97;2.00;;;2.90;99.90;;;;;;5032221;28;20203;-65
2024/01/05 06:21:06;;;;;;;4.70;1.97;;;3.40;99.90;;;;;;5028941;28;20556;-66
2024/01/05 06:23:33;;;;;;;2.40;1.27;;;3.40;99.90;;;;;;5032632;28;20224;-66
2024/01/05 06:26:02;;;;;;;1.23;1.10;;;3.50;99.90;;;;;;5027677;28;20200;-66
2024/01/05 06:28:29;;;;;;;2.30;1.30;;;;;;;;;;5032826;28;20224;-66
2024/01/05 06:30:56;;;;;;;1.77;1.27;;;;;;;;;;5031707;28;20251;-65
2024/01/05 06:33:23;;;;;;;4.20;2.30;;;4.30;99.90;;;;;;5032204;28;20770;-66
2024/01/05 06:35:50;;;;;;;6.10;2.50;;;3.70;99.90;;;;;;5033555;28;20205;-66
2024/01/05 06:38:17;;;;;;;2.93;1.93;;;;;;;;;;5032568;28;20205;-66
2024/01/05 06:40:44;;;;;;;3.43;1.67;;;3.70;99.90;;;;;;5031521;28;20197;-66
2024/01/05 06:43:13;;;;;;;4.30;2.30;;;3.70;99.90;;;;;;5032081;28;20292;-65
2024/01/05 06:45:39;;;;;;;2.87;2.23;;;3.60;99.90;;;;;;5030514;28;20199;-65
2024/01/05 06:48:07;;;;;;;3.33;2.70;;;3.80;99.90;;;;;;5031791;28;20217;-65
2024/01/05 06:50:34;;;;;;;4.73;2.37;;;3.90;99.90;;;;;;5030227;28;20274;-66
2024/01/05 06:53:02;;;;;;;3.23;1.87;;;3.80;99.90;;;;;;5023817;28;20224;-66
2024/01/05 06:55:29;;;;;;;2.93;2.17;;;3.70;99.90;;;;;;5030825;28;20200;-66
2024/01/05 06:57:56;;;;;;;2.53;1.70;;;3.80;99.90;;;;;;5031720;28;20204;-66
2024/01/05 07:00:24;;;;;;;2.43;1.83;;;3.70;99.90;;;;;;5032178;28;20196;-66
2024/01/05 07:02:51;;;;;;;1.67;1.50;;;3.60;99.90;;;;;;5032039;28;20228;-66
2024/01/05 07:05:19;;;;;;;2.23;1.57;;;;;;;;;;5031895;28;20271;-67
2024/01/05 07:07:46;;;;;;;4.10;1.97;;;;;;;;;;5031430;28;20719;-66
2024/01/05 07:10:13;;;;;;;2.00;1.90;;;3.70;99.90;;;;;;5030992;28;20199;-66
2024/01/05 07:12:40;;;;;;;1.67;1.30;;;3.50;99.90;;;;;;5031401;28;20265;-66
2024/01/05 07:15:08;;;;;;;2.40;1.83;;;3.70;99.90;;;;;;5036327;28;20224;-67
2024/01/05 07:17:36;;;;;;;1.87;1.77;;;3.70;99.90;;;;;;5031990;28;20196;-66
2024/01/05 07:20:03;;;;;;;2.03;1.83;;;3.70;99.90;;;;;;5031018;28;20204;-66
2024/01/05 07:22:30;;;;;;;2.00;1.50;;;4.00;99.90;;;;;;5029301;28;20285;-66
2024/01/05 07:24:57;;;;;;;1.53;1.00;;;3.90;99.90;;;;;;5031255;28;20196;-66
2024/01/05 07:27:24;;;;;;;1.10;1.10;;;4.00;99.90;;;;;;5029391;28;20200;-66
2024/01/05 07:29:51;;;;;;;1.00;1.00;;;4.10;99.90;;;;;;5030771;28;20580;-66
2024/01/05 07:32:18;;;;;;;1.20;1.10;;;4.10;99.90;;;;;;5036214;28;20267;-66
2024/01/05 07:34:47;;;;;;;1.87;1.40;;;4.10;99.90;;;;;;5031505;28;20267;-66
2024/01/05 07:37:14;;;;;;;4.60;1.90;;;4.20;99.90;;;;;;5031823;28;20292;-66
2024/01/05 07:39:41;;;;;;;2.03;1.37;;;4.10;99.90;;;;;;5028534;28;20196;-66
2024/01/05 07:42:08;;;;;;;1.47;1.30;;;3.50;99.90;;;;;;5034956;28;20666;-66
2024/01/05 07:44:35;;;;;;;2.47;1.67;;;4.20;99.90;;;;;;5032195;28;20224;-67
2024/01/05 07:47:04;;;;;;;1.27;1.17;;;4.30;99.90;;;;;;5023903;28;20201;-66
2024/01/05 07:49:31;;;;;;;2.43;0.97;;;4.10;99.90;;;;;;5031422;28;20235;-67
2024/01/05 07:52:03;;;;;;;1.73;0.80;;;4.20;99.90;;;;;;5030948;28;20587;-67
2024/01/05 07:54:30;;;;;;;1.27;1.10;;;4.30;99.90;;;;;;5031746;28;20202;-67
2024/01/05 07:57:00;;;;;;;0.93;0.83;;;4.30;99.90;;;;;;5033148;28;20267;-68
2024/01/05 07:59:27;;;;;;;1.63;1.30;;;4.30;99.90;;;;;;5033240;28;20200;-67
2024/01/05 08:01:54;;;;;;;1.00;1.00;;;4.30;99.90;;;;;;5031411;28;20206;-67
2024/01/05 08:04:21;;;;;;;1.57;1.00;;;4.40;99.90;;;;;;5031810;28;20297;-67
2024/01/05 08:06:48;;;;;;;3.40;0.87;;;4.30;99.90;;;;;;5031149;28;20209;-67
2024/01/05 08:09:18;;;;;;;2.00;0.90;;;4.40;99.90;;;;;;5027277;28;20691;-67
2024/01/05 08:11:45;;;;;;;2.23;0.70;;;5.70;99.90;;;;;;5028896;28;20243;-67
2024/01/05 08:14:12;;;;;;;0.77;0.77;;;;;;;;;;5031108;28;20224;-67
2024/01/05 08:16:39;;;;;;;1.30;1.03;;;4.50;99.90;;;;;;5030719;28;20676;-67
2024/01/05 08:19:06;;;;;;;2.40;2.20;;;4.60;99.90;;;;;;5031321;28;20201;-67
2024/01/05 08:21:33;;;;;;;4.37;2.40;;;4.80;99.90;;;;;;5030207;28;20206;-67
2024/01/05 08:24:00;;;;;;;8.83;4.60;;;4.80;99.90;;;;;;5033465;28;20282;-67
2024/01/05 08:26:28;;;;;;;11.03;4.73;;;5.00;99.90;;;;;;5037604;28;20238;-67
2024/01/05 08:28:55;;;;;;;7.80;4.23;;;5.00;99.90;;;;;;5034778;28;20286;-67
2024/01/05 08:31:23;;;;;;;6.90;3.57;;;;;;;;;;5034173;28;20205;-67
2024/01/05 08:33:50;;;;;;;6.50;3.20;;;5.00;99.90;;;;;;5034430;28;20798;-67
2024/01/05 08:36:17;;;;;;;2.77;1.83;;;5.10;99.90;;;;;;5034338;28;20204;-67
2024/01/05 08:38:45;;;;;;;2.10;1.70;;;5.20;99.90;;;;;;5043654;28;20285;-67
2024/01/05 08:41:12;;;;;;;4.00;1.47;;;5.10;99.90;;;;;;5042463;28;20280;-67
2024/01/05 08:43:43;;;;;;;1.47;1.10;;;5.30;99.90;;;;;;5044296;28;20264;-67
2024/01/05 08:46:10;;;;;;;1.93;1.83;;;5.30;99.90;;;;;;5047419;28;20201;-67
2024/01/05 08:48:39;;;;;;;3.33;1.40;;;5.40;99.90;;;;;;5054452;28;20673;-68
2024/01/05 08:51:06;;;;;;;3.23;1.27;;;;;;;;;;5053581;28;20294;-67
2024/01/05 08:53:33;;;;;;;1.47;1.30;;;5.30;99.90;;;;;;5034935;28;20230;-68
2024/01/05 08:56:00;;;;;;;3.03;1.30;;;5.40;99.90;;;;;;5031726;28;20251;-67
2024/01/05 08:58:28;;;;;;;3.30;1.10;;;;;;;;;;5034230;28;20206;-67
2024/01/05 09:00:56;;;;;;;4.77;1.30;;;;;;;;;;5032999;28;20198;-67
2024/01/05 09:03:23;;;;;;;3.60;2.30;;;;;;;;;;5033860;28;20645;-67
2024/01/05 09:05:51;;;;;;;3.47;2.10;;;5.60;99.90;;;;;;5033790;28;20731;-67
2024/01/05 09:08:19;;;;;;;2.00;1.77;;;;;;;;;;5033417;28;20249;-67
2024/01/05 09:10:46;;;;;;;3.30;2.07;;;;;;;;;;5032822;28;20208;-67
2024/01/05 09:13:13;;;;;;;2.17;1.90;;;5.60;99.90;;;;;;5032837;28;20773;-67
2024/01/05 09:15:40;;;;;;;6.43;1.70;;;;;;;;;;5034166;28;20208;-67
2024/01/05 09:18:09;;;;;;;2.20;2.00;;;5.50;99.90;;;;;;5034306;28;20269;-67
2024/01/05 09:20:37;;;;;;;2.10;2.00;;;5.60;99.90;;;;;;5033038;28;20250;-67
2024/01/05 09:23:06;;;;;;;1.67;1.37;;;6.10;99.90;;;;;;5033269;28;20305;-67
2024/01/05 09:25:33;;;;;;;3.17;1.53;;;5.60;99.90;;;;;;5043664;28;20211;-66
2024/01/05 09:28:03;;;;;;;2.10;1.77;;;5.60;99.90;;;;;;5032179;28;20263;-66
2024/01/05 09:30:30;;;;;;;2.67;1.73;;;5.50;99.90;;;;;;5040739;28;20287;-67
2024/01/05 09:32:58;;;;;;;4.13;2.00;;;5.70;99.90;;;;;;5031124;28;20306;-67
2024/01/05 09:35:27;;;;;;;3.97;1.87;;;5.80;99.90;;;;;;5039880;28;20202;-66
2024/01/05 09:37:54;;;;;;;2.93;1.80;;;5.70;99.90;;;;;;5033366;28;20198;-66
2024/01/05 09:40:23;;;;;;;3.40;1.60;;;;;;;;;;5032475;28;20735;-66
2024/01/05 09:42:51;;;;;;;1.53;1.03;;;;;;;;;;5032646;28;20233;-67
2024/01/05 09:45:21;;;;;;;1.40;1.17;;;5.50;99.90;;;;;;5040012;28;20206;-66
2024/01/05 09:47:49;;;;;;;2.13;1.27;;;5.60;99.90;;;;;;5033502;28;20244;-67
2024/01/05 09:50:17;;;;;;;4.00;1.07;;;5.60;99.90;;;;;;5032465;28;20214;-66
2024/01/05 09:52:46;;;;;;;1.10;1.00;;;;;;;;;;5028215;28;20271;-67
2024/01/05 09:55:13;;;;;;;2.40;1.37;;;;;;;;;;5018856;28;20675;-67
2024/01/05 09:57:42;;;;;;;2.50;2.30;;;5.70;99.90;;;;;;5032858;28;20295;-67
2024/01/05 10:00:13;;;;;;;2.10;1.90;;;5.80;99.90;;;;;;5032042;28;20283;-66
2024/01/05 10:02:43;;;;;;;2.77;1.93;;;5.70;99.90;;;;;;5032990;28;20217;-67
2024/01/05 10:05:11;;;;;;;3.67;3.37;;;5.60;99.90;;;;;;5033323;28;20292;-67
2024/01/05 10:07:45;;;;;;;5.30;4.83;;;5.50;99.90;;;;;;5033433;28;20252;-67
2024/01/05 10:10:13;;;;;;;3.17;2.93;;;5.60;99.90;;;;;;5032686;28;20694;-67
2024/01/05 10:12:41;;;;;;;2.60;2.40;;;;;;;;;;5032844;28;20224;-66
2024/01/05 10:15:09;;;;;;;2.53;2.33;;;5.60;99.90;;;;;;5032644;28;20263;-67
2024/01/05 10:17:36;;;;;;;2.87;2.37;;;;;;;;;;5029349;28;20648;-66
2024/01/05 10:20:14;;;;;;;4.97;2.37;;;5.60;99.90;;;;;;5040586;28;20198;-66
2024/01/05 10:22:41;;;;;;;2.50;2.00;;;5.70;99.90;;;;;;5032552;28;20220;-66
2024/01/05 10:25:16;;;;;;;2.33;2.13;;;;;;;;;;5030170;28;20441;-67
2024/01/05 10:27:44;;;;;;;4.90;2.70;;;;;;;;;;5032443;28;20678;-62
2024/01/05 10:30:12;;;;;;;2.50;2.27;;;;;;;;;;5042710;28;20273;-65
2024/01/05 10:32:39;;;;;;;2.97;2.60;;;;;;;;;;5033721;28;20275;-63
2024/01/05 10:35:09;;;;;;;3.80;3.00;;;7.00;99.90;;;;;;5034991;28;20722;-60
2024/01/05 10:37:36;;;;;;;3.37;3.03;;;5.70;99.90;;;;;;5040745;28;20220;-65
2024/01/05 10:40:04;;;;;;;2.63;2.47;;;;;;;;;;5038733;28;20202;-72
2024/01/05 10:42:34;;;;;;;2.10;2.00;;;;;;;;;;5034054;28;20262;-61
2024/01/05 10:45:01;;;;;;;4.20;3.80;;;;;;;;;;5031456;28;20676;-63
2024/01/05 10:47:30;;;;;;;4.23;3.50;;;;;;;;;;5025160;28;20266;-65
2024/01/05 10:49:57;;;;;;;7.57;3.70;;;6.00;99.90;;;;;;5029811;28;20228;-63
2024/01/05 10:52:25;;;;;;;6.27;4.37;;;;;;;;;;5031839;28;20246;-65
2024/01/05 10:54:53;;;;;;;3.73;3.03;;;6.20;99.90;;;;;;5029163;28;20675;-64
2024/01/05 10:57:23;;;;;;;5.43;3.33;;;6.20;99.90;;;;;;5034313;28;20583;-66
2024/01/05 10:59:52;;;;;;;4.67;2.93;;;6.20;99.90;;;;;;5024778;28;20584;-65
2024/01/05 11:02:22;;;;;;;4.57;3.53;;;6.20;99.90;;;;;;5037609;28;20683;-64
2024/01/05 11:04:54;;;;;;;4.80;3.47;;;6.20;99.90;;;;;;5038926;28;20213;-64
2024/01/05 11:07:23;;;;;;;4.57;3.23;;;;;;;;;;5031065;28;20257;-62
2024/01/05 11:09:54;;;;;;;5.80;3.90;;;;;;;;;;5034483;28;20357;-63
2024/01/05 11:12:29;;;;;;;5.17;3.10;;;;;;;;;;5034437;28;20235;-62
2024/01/05 11:15:14;;;;;;;3.53;2.87;;;6.40;99.90;;;;;;5029100;28;20204;-66
2024/01/05 11:18:11;;;;;;;5.97;3.37;;;6.60;99.90;;;;;;5026661;28;20610;-65
2024/01/05 11:20:51;;;;;;;3.63;3.33;;;6.70;99.90;;;;;;5030665;28;20253;-65
2024/01/05 11:23:21;;;;;;;4.70;3.40;;;6.80;99.90;;;;;;5041155;28;20223;-65
2024/01/05 11:25:49;;;;;;;3.63;3.30;;;7.00;99.90;;;;;;5032293;28;20704;-65
2024/01/05 11:28:34;;;;;;;2.97;2.67;;;7.00;99.90;;;;;;5019681;28;20645;-65
2024/01/05 11:31:03;;;;;;;6.60;3.27;;;7.10;99.90;;;;;;5031071;28;20574;-66
2024/01/05 11:33:48;;;;;;;3.93;3.40;;;7.20;99.90;;;;;;5029330;28;20303;-66
2024/01/05 11:36:49;;;;;;;4.03;3.63;;;7.30;99.90;;;;;;5031668;28;20202;-66
2024/01/05 11:39:38;;;;;;;5.20;3.90;;;7.30;99.90;;;;;;5028265;28;20349;-66
2024/01/05 11:42:05;;;;;;;4.60;3.73;;;7.30;99.90;;;;;;5039466;28;20261;-66
2024/01/05 11:44:33;;;;;;;5.37;3.33;;;7.30;99.90;;;;;;5026084;28;20209;-66
2024/01/05 11:47:02;;;;;;;4.77;3.30;;;7.20;99.90;;;;;;5027747;28;20290;-66
2024/01/05 11:49:37;;;;;;;5.53;3.10;;;7.20;99.90;;;;;;5028778;28;20219;-66
2024/01/05 11:52:05;;;;;;;5.70;3.07;;;7.00;99.90;;;;;;5032048;28;20221;-66
2024/01/05 11:54:33;;;;;;;7.53;3.80;;;7.00;99.90;;;;;;5033614;28;20200;-66
2024/01/05 11:57:01;;;;;;;6.23;3.70;;;6.90;99.90;;;;;;5033750;28;20241;-63
2024/01/05 11:59:28;;;;;;;4.00;3.67;;;6.90;99.90;;;;;;5031181;28;20294;-62
2024/01/05 12:01:55;;;;;;;7.10;4.60;;;7.00;99.90;;;;;;5028079;28;20208;-64
2024/01/05 12:04:23;;;;;;;6.30;5.77;;;6.90;99.90;;;;;;5048660;28;20219;-64
2024/01/05 12:06:54;;;;;;;13.40;7.17;;;6.80;99.90;;;;;;5049283;28;20634;-64
2024/01/05 12:09:21;;;;;;;25.10;12.03;;;6.80;99.90;;;;;;5029595;28;20220;-64
2024/01/05 12:11:49;;;;;;;20.00;7.90;;;6.70;99.90;;;;;;5032315;28;20213;-65
2024/01/05 12:14:26;;;;;;;16.80;8.50;;;6.70;99.90;;;;;;5031977;28;20224;-64
2024/01/05 12:16:53;;;;;;;12.17;7.13;;;6.60;99.90;;;;;;5034262;28;20287;-64
2024/01/05 12:19:21;;;;;;;15.70;6.23;;;6.60;99.90;;;;;;5033870;28;20208;-63
2024/01/05 12:21:52;;;;;;;12.63;5.87;;;6.50;99.90;;;;;;5033986;28;20301;-64
2024/01/05 12:24:19;;;;;;;8.53;5.30;;;6.60;99.90;;;;;;5025838;28;20294;-64
2024/01/05 12:26:48;;;;;;;10.63;4.67;;;6.60;99.90;;;;;;5030695;28;20668;-64
2024/01/05 12:29:15;;;;;;;8.07;4.87;;;6.60;99.90;;;;;;5035977;28;20238;-64
2024/01/05 12:31:43;;;;;;;11.37;5.40;;;6.70;99.90;;;;;;5036874;28;20208;-64
2024/01/05 12:34:11;;;;;;;11.50;6.40;;;6.70;99.90;;;;;;5033347;28;20219;-64
2024/01/05 12:36:38;;;;;;;8.93;5.40;;;6.90;99.90;;;;;;5042494;28;20201;-64
2024/01/05 12:39:10;;;;;;;7.07;5.37;;;;;;;;;;5033044;28;20204;-64
2024/01/05 12:41:39;;;;;;;9.60;5.50;;;7.40;99.90;;;;;;5041652;28;20199;-64
2024/01/05 12:44:07;;;;;;;8.50;5.60;;;7.20;99.90;;;;;;5034426;28;20236;-64
2024/01/05 12:46:41;;;;;;;7.90;5.33;;;7.20;99.90;;;;;;5034047;28;20197;-64
2024/01/05 12:49:21;;;;;;;10.23;6.50;;;7.10;99.90;;;;;;5026605;28;20303;-64
2024/01/05 12:51:49;;;;;;;7.77;5.53;;;7.00;99.90;;;;;;5034030;28;20285;-64
2024/01/05 12:54:17;;;;;;;7.70;6.57;;;7.00;99.90;;;;;;5034404;28;20224;-64
2024/01/05 12:56:48;;;;;;;9.53;5.60;;;7.00;99.90;;;;;;5032723;28;20204;-64
2024/01/05 12:59:24;;;;;;;9.10;6.20;;;;;;;;;;5033567;28;20631;-64
2024/01/05 13:02:02;;;;;;;10.97;6.77;;;6.90;99.90;;;;;;5030156;28;20208;-64
2024/01/05 13:04:30;;;;;;;8.50;5.43;;;;;;;;;;5033895;28;20266;-64
2024/01/05 13:06:57;;;;;;;7.63;5.60;;;6.70;99.90;;;;;;5032884;28;20323;-64
2024/01/05 13:09:26;;;;;;;6.97;5.30;;;;;;;;;;5036509;28;20265;-66
2024/01/05 13:11:53;;;;;;;10.07;6.47;;;6.50;99.90;;;;;;5030148;28;20200;-63
2024/01/05 13:14:20;;;;;;;6.77;6.27;;;6.90;99.90;;;;;;5027035;28;20249;-64
2024/01/05 13:16:48;;;;;;;8.70;5.60;;;;;;;;;;5030804;28;20204;-64
2024/01/05 13:19:15;;;;;;;7.03;6.03;;;;;;;;;;5033170;28;20257;-63
2024/01/05 13:21:43;;;;;;;9.17;7.47;;;6.70;99.90;;;;;;5033103;28;20266;-63
2024/01/05 13:24:10;;;;;;;10.10;7.50;;;;;;;;;;5033841;28;20225;-64
2024/01/05 13:26:38;;;;;;;10.53;7.67;;;;;;;;;;5030113;28;20212;-67
2024/01/05 13:29:06;;;;;;;7.83;6.63;;;;;;;;;;5034098;28;20202;-66